NCAR-RAP Real-Time Weather Data

Output produced by METARs form (23 January 2018  15:45 UTC)
found at http://weather.rap.ucar.edu/surface/
 
RJBB 231530Z 27022KT 9999 -SHSN FEW025 BKN035 02/M07 Q1016 NOSIG
RJBB 231500Z 28017KT 9999 VCSH FEW025 BKN035 02/M08 Q1016 NOSIG
RJBB 231430Z 28015KT 9999 -SHSN FEW025 BKN035 03/M07 Q1016 NOSIG
RJBB 231400Z 28017KT 9999 VCSH FEW025 BKN040 03/M08 Q1016 NOSIG
RJBB 231330Z 28019KT 9999 VCSH FEW025 BKN045 03/M08 Q1016 NOSIG
RJBB 231300Z 28017KT 9999 VCSH FEW025 BKN045 03/M08 Q1016 NOSIG
RJBB 231230Z 28018KT 9999 FEW025 BKN045 03/M07 Q1016 NOSIG
RJBB 231200Z 27017KT 9999 FEW025 BKN045 03/M07 Q1016 NOSIG
RJBB 231130Z 30017KT 9999 VCSH FEW025 BKN045 03/M06 Q1016 NOSIG
RJBB 231100Z 29018KT 9999 FEW025 BKN045 04/M07 Q1015 NOSIG
RJBB 231030Z 29020KT 9999 FEW025 BKN045 04/M08 Q1015 NOSIG
RJBB 231000Z 29022KT 9999 FEW025 SCT045 04/M08 Q1014 NOSIG
RJBB 230930Z 27026KT 9999 FEW025 BKN045 05/M08 Q1014 NOSIG
RJBB 230900Z 28028KT 9999 FEW025 SCT045 05/M08 Q1013 NOSIG
RJBB 230830Z 28026KT 9999 FEW025 BKN045 06/M06 Q1013 TEMPO 28030G40KT
RJBB 230818Z 28028G38KT 9999 VCSH FEW025 SCT045 06/M07 Q1013 RMK 1CU025 4CU045 A2993
RJBB 230800Z 29030KT 9999 VCSH FEW025 SCT045 06/M08 Q1013 TEMPO 28030G40KT
RJBB 230730Z 30024KT 9999 FEW025 SCT080 06/M03 Q1013 TEMPO 28030G40KT
RJBB 230706Z 30028G38KT 9999 FEW025 07/M03 Q1012 RMK 1CU025 A2990
RJBB 230700Z 30029KT 9999 FEW025 07/M04 Q1012 BECMG 28034G46KT
RJBB 230630Z 30023KT 9999 FEW020 07/M01 Q1012 TEMPO 28030G40KT
RJBB 230606Z 30030G40KT 9999 VCSH FEW020 SCT035 06/M01 Q1012 RMK 1CU020 4CU035 A2991
RJBB 230600Z 30033KT 9999 -SHRA FEW020 SCT030 BKN045 07/M02 Q1012 TEMPO 28034G46KT
RJBB 230540Z 30026G36KT 9999 FEW020 SCT040 08/M01 Q1012 WS R24L RMK 1CU020 3CU040 A2990 WS LOSS 15KT AND GAIN 10KT OBS AT 0532Z TKOF RWY24L BTN 0FT AND 1000FT B77W
RJBB 230530Z 30028KT 9999 FEW025 SCT035 08/M01 Q1012 TEMPO 28034G46KT
RJBB 230518Z 31021G31KT 9999 FEW025 SCT035 08/M00 Q1012 RMK 1CU025 3CU035 A2989 MOD TURB OBS AT 0509Z OVER ALISA BTN 12000FT AND 10000FT IN DES A320
RJBB 230500Z 31024KT 9999 FEW025 08/00 Q1012 TEMPO 28034G46KT
RJBB 230430Z 29024KT 9999 FEW025 09/01 Q1011 TEMPO 28034G46KT
RJBB 230400Z 29024KT 9999 FEW025 09/01 Q1011 TEMPO 28034G46KT
RJBB 230330Z 29024KT 9999 FEW025 09/01 Q1011 TEMPO 28034G46KT
RJBB 230300Z 29027KT 9999 FEW015 BKN040 09/02 Q1011 TEMPO 28034G46KT
RJBB 230230Z 29024KT 5000 R24L/P2000N R24R/1300VP2000D -SHRA FEW008 SCT025 BKN035 07/05 Q1011 TEMPO 29028G38KT 4000 SHRA BR
RJBB 230219Z 27022KT 4000 R24L/2000D R24R/2000N SHRA FEW008 SCT025 BKN035 07/04 Q1011 RMK 1CU008 4CU025 7CU035 A2988
RJBB 230212Z 27024G34KT 2500 R24L/P2000N R24R/P2000N SHRA FEW008 SCT025 BKN035 07/03 Q1011 RMK 1CU008 4CU025 7CU035 A2988
RJBB 230210Z 27025KT 4000 R24L/P2000N R24R/P2000N SHRA FEW008 SCT025 BKN035 07/03 Q1011 RMK 1CU008 4CU025 7CU035 A2988
RJBB 230200Z 29023G37KT 9999 R24L/P2000N R24R/P2000N -SHRA FEW015 SCT025 BKN035 09/03 Q1011 NOSIG
RJBB 230143Z 29022KT 8000 -SHRA FEW015 SCT025 BKN035 09/04 Q1011 RMK 1CU015 3CU025 5CU035 A2988 MOD TURB OBS AT 0127Z OVER ALISA 12000FT IN DES B772
RJBB 230130Z 26011KT 8000 FEW015 BKN035 10/06 Q1012 TEMPO 28022G32KT
RJBB 230100Z 25012KT 8000 FEW008 BKN035 09/05 Q1012 TEMPO 28022G32KT
RJBB 230030Z 25012KT 8000 VCSH FEW008 SCT025 BKN035 08/05 Q1012 TEMPO 28022G32KT
RJBB 230000Z 25020G31KT 7000 SHRA FEW008 SCT015 BKN030 07/04 Q1011 BECMG TL0100 -SHRA
RJBB 222330Z 21016KT 8000 -SHRA FEW008 SCT020 BKN040 08/05 Q1011 BECMG 28020KT
RJBB 222300Z 22014KT 9999 -SHRA FEW008 SCT020 BKN040 08/05 Q1011 BECMG 28020KT
RJBB 222230Z 22015KT 9999 -SHRA FEW008 SCT020 BKN040 08/04 Q1011 BECMG 28020KT
RJBB 222200Z 22016KT 9999 FEW020 BKN040 08/04 Q1011 NOSIG
RJBB 222130Z 22014KT 9999 FEW020 BKN040 07/03 Q1010 NOSIG
RJBB 222100Z 21013KT 9999 FEW030 SCT040 07/03 Q1010 NOSIG
RJBB 222030Z AUTO 20010KT 9999 NCD 06/03 Q1010 NOSIG
RJBB 222000Z AUTO 19008KT 9999 FEW046 06/03 Q1010 NOSIG
RJBB 221930Z AUTO 21010KT 9999 FEW050 06/04 Q1011 NOSIG
RJBB 221900Z AUTO 21007KT 160V240 9999 FEW038 06/04 Q1011 NOSIG
RJBB 221830Z AUTO 24010KT 9999 NCD 06/03 Q1011 NOSIG
RJBB 221800Z AUTO 24011KT 9999 FEW018 05/02 Q1011 NOSIG
RJBB 221730Z AUTO 26013KT 9999 FEW019 06/03 Q1012 NOSIG
RJBB 221700Z AUTO 27014KT 9999 FEW017 SCT019 06/03 Q1012 NOSIG
RJBB 221630Z AUTO 26013KT 9999 SCT017 BKN019 06/03 Q1012 NOSIG
RJBB 221600Z AUTO 27014KT 9999 BKN019 06/02 Q1012 NOSIG
RJBB 221530Z AUTO 27012KT 9999 FEW016 BKN019 BKN022 06/03 Q1011 NOSIG
RJBB 221500Z AUTO 25011KT 9999 FEW016 OVC022 06/02 Q1012 NOSIG
RJBB 221430Z AUTO 26012KT 9999 FEW017 BKN021 OVC024 06/03 Q1012 NOSIG
RJBB 221400Z AUTO 25009KT 9999 SCT015 BKN019 OVC022 05/03 Q1012 NOSIG
RJBB 221330Z 27007KT 230V290 9999 FEW003 BKN015 05/03 Q1012 NOSIG
RJBB 221300Z 26009KT 230V290 9999 FEW005 BKN015 05/02 Q1012 NOSIG
RJBB 221230Z 29009KT 9999 FEW005 BKN020 05/03 Q1012 NOSIG
RJBB 221200Z 30008KT 9999 FEW005 BKN015 05/03 Q1012 NOSIG
RJBB 221130Z 31010KT 9999 FEW005 SCT015 05/02 Q1012 NOSIG
RJBB 221100Z 32011KT 9999 FEW005 SCT015 BKN040 04/02 Q1012 BECMG 30012KT
RJBB 221030Z 33006KT 9999 FEW005 SCT030 BKN040 04/02 Q1012 NOSIG
RJBB 221000Z 33007KT 300V050 9999 VCSH FEW005 BKN030 04/02 Q1012 NOSIG
RJBB 220930Z 34010KT 9999 -RA FEW005 SCT008 BKN030 04/02 Q1012 NOSIG
RJBB 220900Z 33015KT 9999 -RA FEW005 BKN008 BKN030 04/02 Q1011 BECMG FEW008 SCT010 BKN030
RJBB 220830Z 33018KT 9999 -RA FEW005 BKN008 BKN020 04/02 Q1012 BECMG 31012KT FEW008 SCT010 BKN030
RJBB 220800Z 33016KT 9999 -RA FEW005 BKN010 BKN030 04/02 Q1011 BECMG 31012KT TEMPO FEW005 BKN008 BKN030
RJBB 220730Z 33012KT 9999 -RA FEW005 BKN008 BKN030 04/03 Q1011 BECMG 31010KT
RJBB 220700Z 36009KT 9999 -RA FEW005 BKN008 BKN030 04/03 Q1010 TEMPO 4000 RA BR
RJBB 220630Z 02008KT 8000 -RA FEW005 BKN008 BKN025 03/02 Q1010 TEMPO 4000 RA BR
RJBB 220621Z 04007KT 7000 -RA FEW005 BKN008 BKN025 03/02 Q1009 RMK 1ST005 5ST008 6CU025 A2982
RJBB 220612Z 05007KT 7000 R06R/P2000N R06L/P2000N RA FEW005 BKN008 BKN025 03/02 Q1010 RMK 1ST005 5ST008 6CU025 A2982
RJBB 220600Z 05008KT 6000 RA BR FEW005 BKN010 BKN025 03/02 Q1010 TEMPO 4000 RA BR FEW005 BKN008 BKN025
RJBB 220542Z 05009KT 9999 RA FEW005 BKN010 BKN025 03/02 Q1010 RMK 1ST005 5CU010 6CU025 A2983
RJBB 220530Z 05009KT 9999 RA FEW005 SCT012 BKN025 03/02 Q1010 TEMPO 4000 RA BR
RJBB 220500Z 06012KT 9000 RA FEW008 SCT015 BKN030 04/02 Q1011 TEMPO 4000 RA BR
RJBB 220430Z 07012KT 9999 RA FEW008 SCT015 BKN030 04/02 Q1011 TEMPO 3000 RA BR
RJBB 220409Z 07010KT 040V100 9999 RA FEW010 SCT020 BKN030 05/02 Q1012 RMK 1CU010 3CU020 5CU030 A2989
RJBB 220400Z 05011KT 9999 -RA FEW010 SCT020 BKN030 05/01 Q1012 TEMPO 3000 RA BR
RJBB 220330Z 04012KT 9999 -RA FEW020 BKN035 BKN070 06/01 Q1013 TEMPO 3000 RA BR
RJBB 220300Z 05010KT 9999 -RA FEW020 BKN035 BKN080 06/00 Q1013 NOSIG
RJBB 220230Z 04009KT 9999 FEW025 SCT040 BKN080 06/M00 Q1014 NOSIG
RJBB 220200Z 05011KT 9999 FEW025 BKN080 OVC100 06/M01 Q1015 NOSIG
RJBB 220130Z 05014KT 9999 FEW025 BKN080 OVC120 06/M00 Q1015 NOSIG
RJBB 220100Z 06012KT 9999 FEW025 BKN080 OVC120 06/01 Q1016 NOSIG
RJBB 220030Z 05012KT 9999 FEW020 BKN080 OVC120 06/01 Q1016 NOSIG
RJBB 220000Z 07010KT 9999 FEW005 SCT060 BKN080 06/01 Q1016 NOSIG
RJBB 212330Z 06010KT 9999 FEW005 SCT060 BKN090 06/01 Q1016 NOSIG
RJBB 212300Z 08011KT 9999 FEW005 SCT050 BKN090 06/02 Q1016 NOSIG
RJBB 212230Z 07013KT 9999 FEW060 SCT100 BKN120 05/02 Q1016 NOSIG
RJBB 212200Z 08012KT CAVOK 05/02 Q1017 NOSIG
RJBB 212130Z 07010KT CAVOK 06/03 Q1017 NOSIG
RJBB 212100Z 06008KT CAVOK 05/02 Q1018 NOSIG
RJBB 212030Z AUTO 08007KT 9999 NSC 06/02 Q1018 NOSIG
RJBB 212000Z AUTO 09008KT 9999 NSC 06/02 Q1018 NOSIG
RJBB 211930Z AUTO 09006KT 9999 NSC 05/02 Q1018 NOSIG
RJBB 211900Z AUTO 06008KT 9999 NSC 05/02 Q1018 NOSIG
RJBB 211830Z AUTO 06005KT 010V070 9999 NSC 05/00 Q1019 NOSIG
RJBB 211800Z AUTO VRB01KT 9999 NSC 06/01 Q1019 NOSIG
RJBB 211730Z AUTO 08003KT 9999 NSC 06/01 Q1019 NOSIG
RJBB 211700Z AUTO 05006KT 9999 NCD 07/02 Q1019 NOSIG
RJBB 211630Z AUTO 06009KT 9999 NSC 05/01 Q1019 NOSIG
RJBB 211600Z AUTO 06008KT 9999 NSC 06/01 Q1019 NOSIG
RJBB 211530Z AUTO 06009KT 9999 FEW038 06/01 Q1019 NOSIG
RJBB 211500Z AUTO 06009KT 9999 BKN038 06/00 Q1020 NOSIG
RJBB 211430Z AUTO 01009KT 9999 NCD 07/01 Q1020 NOSIG
RJBB 211400Z AUTO 01010KT 9999 NSC 07/M02 Q1020 NOSIG
RJBB 211330Z 36013KT CAVOK 08/M01 Q1020 NOSIG
RJBB 211300Z 01012KT CAVOK 08/M02 Q1020 NOSIG
RJBB 211230Z 01013KT CAVOK 08/M01 Q1020 NOSIG
RJBB 211200Z 01013KT CAVOK 08/00 Q1021 NOSIG
RJBB 211130Z 01014KT CAVOK 09/M00 Q1021 NOSIG
RJBB 211100Z 01012KT CAVOK 08/M00 Q1021 NOSIG
RJBB 211030Z 36015KT 9999 FEW050 BKN/// 09/02 Q1021 NOSIG
RJBB 211000Z 04012KT 9999 FEW050 BKN/// 09/02 Q1020 NOSIG
RJBB 210930Z 01009KT 9999 FEW050 SCT/// 09/02 Q1020 NOSIG
RJBB 210900Z 36009KT 9999 FEW040 SCT050 10/02 Q1020 NOSIG
RJBB 210830Z 31010KT 9999 FEW040 SCT050 10/03 Q1020 BECMG 34008KT
RJBB 210800Z 31011KT 9999 FEW040 SCT050 09/02 Q1019 BECMG 34008KT
RJBB 210748Z 32010KT 9999 FEW040 SCT050 09/02 Q1019 RMK 1CU040 3SC050 A3010
RJBB 210730Z VRB02KT 9999 FEW050 09/02 Q1019 BECMG 34008KT
RJBB 210700Z 20004KT 150V280 9999 FEW060 09/03 Q1019 NOSIG
RJBB 210630Z 21006KT 170V260 9999 FEW030 10/03 Q1019 NOSIG
RJBB 210600Z 20005KT 140V260 9999 FEW030 10/01 Q1019 NOSIG
RJBB 210530Z 19004KT 140V250 9999 FEW025 10/02 Q1019 NOSIG
RJBB 210500Z 27003KT 220V290 9999 FEW025 10/01 Q1019 NOSIG
RJBB 210430Z 30004KT 210V350 9999 FEW025 10/01 Q1019 NOSIG
RJBB 210400Z 28006KT 9999 FEW025 10/03 Q1020 NOSIG